createdAt,value
2022-07-30T00:00:12.670Z,9.30
2022-07-30T00:01:12.720Z,7.50
2022-07-30T00:02:12.644Z,9.10
2022-07-30T00:03:12.710Z,7.80
2022-07-30T00:04:12.636Z,7.80
2022-07-30T00:05:12.613Z,8.60
2022-07-30T00:06:12.608Z,6.60
2022-07-30T00:07:12.592Z,8.00
2022-07-30T00:08:12.577Z,8.90
2022-07-30T00:09:12.568Z,7.90
2022-07-30T00:10:12.554Z,7.70
2022-07-30T00:11:12.546Z,8.20
2022-07-30T00:12:12.533Z,7.20
2022-07-30T00:13:14.349Z,8.50
2022-07-30T00:14:12.525Z,8.10
2022-07-30T00:15:12.507Z,8.60
2022-07-30T00:16:12.532Z,7.40
2022-07-30T00:17:12.523Z,5.90
2022-07-30T00:18:12.473Z,10.80
2022-07-30T00:19:12.461Z,7.90
2022-07-30T00:20:12.643Z,7.40
2022-07-30T00:21:12.441Z,8.90
2022-07-30T00:22:12.428Z,6.90
2022-07-30T00:23:12.422Z,8.30
2022-07-30T00:24:12.406Z,8.40
2022-07-30T00:25:12.415Z,6.70
2022-07-30T00:26:12.388Z,8.90
2022-07-30T00:27:12.378Z,8.70
2022-07-30T00:28:12.367Z,8.00
2022-07-30T00:29:12.357Z,7.30
2022-07-30T00:30:12.344Z,8.00
2022-07-30T00:31:12.390Z,9.80
2022-07-30T00:32:12.328Z,8.60
2022-07-30T00:33:12.317Z,7.10
2022-07-30T00:34:12.306Z,7.40
2022-07-30T00:35:12.294Z,8.90
2022-07-30T00:36:12.282Z,8.80
2022-07-30T00:37:12.272Z,8.20
2022-07-30T00:38:12.267Z,8.00
2022-07-30T00:39:12.256Z,7.40
2022-07-30T00:40:12.240Z,10.00
2022-07-30T00:41:12.230Z,8.30
2022-07-30T00:42:12.222Z,9.50
2022-07-30T00:43:12.210Z,7.20
2022-07-30T00:44:12.201Z,13.30
2022-07-30T00:45:12.188Z,6.90
2022-07-30T00:46:12.278Z,6.60
2022-07-30T00:47:12.169Z,8.80
2022-07-30T00:48:12.161Z,6.90
2022-07-30T00:49:12.196Z,8.30
2022-07-30T00:50:12.136Z,7.70
2022-07-30T00:51:12.127Z,6.90
2022-07-30T00:52:12.121Z,8.10
2022-07-30T00:53:12.100Z,7.70
2022-07-30T00:54:12.094Z,7.90
2022-07-30T00:55:12.083Z,6.00
2022-07-30T00:56:12.075Z,12.00
2022-07-30T00:57:12.059Z,9.50
2022-07-30T00:58:12.050Z,6.50
2022-07-30T00:59:12.039Z,7.20
2022-07-30T01:00:12.032Z,8.00
2022-07-30T01:01:12.097Z,10.30
2022-07-30T01:02:12.057Z,9.60
2022-07-30T01:03:11.993Z,6.90
2022-07-30T01:04:12.018Z,7.40
2022-07-30T01:05:11.971Z,8.40
2022-07-30T01:06:14.291Z,6.30
2022-07-30T01:07:11.948Z,7.30
2022-07-30T01:08:11.939Z,8.90
2022-07-30T01:09:11.927Z,6.90
2022-07-30T01:10:11.926Z,8.90
2022-07-30T01:11:11.905Z,8.40
2022-07-30T01:12:11.898Z,8.60
2022-07-30T01:13:11.884Z,8.10
2022-07-30T01:14:11.873Z,7.40
2022-07-30T01:15:11.860Z,8.20
2022-07-30T01:16:11.922Z,7.40
2022-07-30T01:17:11.838Z,10.20
2022-07-30T01:18:11.831Z,10.20
2022-07-30T01:19:11.826Z,10.70
2022-07-30T01:20:11.819Z,7.50
2022-07-30T01:21:11.795Z,7.30
2022-07-30T01:22:11.784Z,7.90
2022-07-30T01:23:11.780Z,9.20
2022-07-30T01:24:11.765Z,6.60
2022-07-30T01:25:11.753Z,9.20
2022-07-30T01:26:11.742Z,7.70
2022-07-30T01:27:11.729Z,8.70
2022-07-30T01:28:11.718Z,7.70
2022-07-30T01:29:11.706Z,7.90
2022-07-30T01:30:11.696Z,5.70
2022-07-30T01:31:11.707Z,7.70
2022-07-30T01:32:11.675Z,8.40
2022-07-30T01:33:11.662Z,7.90
2022-07-30T01:34:11.653Z,8.10
2022-07-30T01:35:11.641Z,8.90
2022-07-30T01:36:11.632Z,8.20
2022-07-30T01:37:11.620Z,8.70
2022-07-30T01:38:11.608Z,7.80
2022-07-30T01:39:11.597Z,6.90
2022-07-30T01:40:11.590Z,8.70
2022-07-30T01:41:11.574Z,10.30
2022-07-30T01:42:11.569Z,7.40
2022-07-30T01:43:11.553Z,7.10
2022-07-30T01:44:11.541Z,10.10
2022-07-30T01:45:11.528Z,8.00
2022-07-30T01:46:11.600Z,6.70
2022-07-30T01:47:11.508Z,7.60
2022-07-30T01:48:11.496Z,8.00
2022-07-30T01:49:11.570Z,10.20
2022-07-30T01:50:11.474Z,6.70
2022-07-30T01:51:11.462Z,9.00
2022-07-30T01:52:11.453Z,7.60
2022-07-30T01:53:11.446Z,10.40
2022-07-30T01:54:11.431Z,5.80
2022-07-30T01:55:11.510Z,5.70
2022-07-30T01:56:11.576Z,6.90
2022-07-30T01:57:11.397Z,6.50
2022-07-30T01:58:11.387Z,11.10
2022-07-30T01:59:11.372Z,8.70
2022-07-30T02:00:11.382Z,9.00
2022-07-30T02:01:11.493Z,9.80
2022-07-30T02:02:11.342Z,9.40
2022-07-30T02:03:11.431Z,8.50
2022-07-30T02:04:11.322Z,8.10
2022-07-30T02:05:11.307Z,10.00
2022-07-30T02:06:11.298Z,11.20
2022-07-30T02:07:11.287Z,8.50
2022-07-30T02:08:11.275Z,12.50
2022-07-30T02:09:11.613Z,8.20
2022-07-30T02:10:11.261Z,8.90
2022-07-30T02:11:11.246Z,6.50
2022-07-30T02:12:11.232Z,8.50
2022-07-30T02:13:11.219Z,9.20
2022-07-30T02:14:11.210Z,7.30
2022-07-30T02:15:11.196Z,8.70
2022-07-30T02:16:11.217Z,9.20
2022-07-30T02:17:18.423Z,5.80
2022-07-30T02:18:11.165Z,7.70
2022-07-30T02:19:11.156Z,9.80
2022-07-30T02:20:11.143Z,6.00
2022-07-30T02:21:13.013Z,8.90
2022-07-30T02:22:11.123Z,8.90
2022-07-30T02:23:11.109Z,8.70
2022-07-30T02:24:11.098Z,6.80
2022-07-30T02:25:11.088Z,7.80
2022-07-30T02:26:11.080Z,9.60
2022-07-30T02:27:11.064Z,7.70
2022-07-30T02:28:11.056Z,8.60
2022-07-30T02:29:11.711Z,10.00
2022-07-30T02:30:11.035Z,11.60
2022-07-30T02:31:17.476Z,8.80
2022-07-30T02:32:11.010Z,9.30
2022-07-30T02:33:10.998Z,8.70
2022-07-30T02:34:10.991Z,8.00
2022-07-30T02:35:10.979Z,9.40
2022-07-30T02:36:11.381Z,8.60
2022-07-30T02:37:10.954Z,11.40
2022-07-30T02:38:10.944Z,9.90
2022-07-30T02:39:10.935Z,8.50
2022-07-30T02:40:10.923Z,9.40
2022-07-30T02:41:10.910Z,6.80
2022-07-30T02:42:10.902Z,8.80
2022-07-30T02:43:10.887Z,7.80
2022-07-30T02:44:10.880Z,14.10
2022-07-30T02:45:10.867Z,10.40
2022-07-30T02:46:10.896Z,9.00
2022-07-30T02:47:10.896Z,7.90
2022-07-30T02:48:10.837Z,11.80
2022-07-30T02:49:10.935Z,7.60
2022-07-30T02:50:10.813Z,6.60
2022-07-30T02:51:10.803Z,8.70
2022-07-30T02:52:10.793Z,9.70
2022-07-30T02:53:10.780Z,8.80
2022-07-30T02:54:10.774Z,8.60
2022-07-30T02:55:10.768Z,9.60
2022-07-30T02:56:10.747Z,11.00
2022-07-30T02:57:10.738Z,8.10
2022-07-30T02:58:10.725Z,6.80
2022-07-30T02:59:10.712Z,11.50
2022-07-30T03:00:10.701Z,9.40
2022-07-30T03:01:10.737Z,12.00
2022-07-30T03:02:10.731Z,8.70
2022-07-30T03:03:10.666Z,8.30
2022-07-30T03:04:10.658Z,11.50
2022-07-30T03:05:10.643Z,10.60
2022-07-30T03:06:10.636Z,9.30
2022-07-30T03:07:11.169Z,10.20
2022-07-30T03:08:10.614Z,11.90
2022-07-30T03:09:10.627Z,10.30
2022-07-30T03:10:10.591Z,10.10
2022-07-30T03:11:10.577Z,11.30
2022-07-30T03:12:10.568Z,10.30
2022-07-30T03:13:10.559Z,11.30
2022-07-30T03:14:10.543Z,10.10
2022-07-30T03:15:10.532Z,11.70
2022-07-30T03:16:10.603Z,9.80
2022-07-30T03:17:10.511Z,8.90
2022-07-30T03:18:10.498Z,9.70
2022-07-30T03:19:10.485Z,9.50
2022-07-30T03:20:10.483Z,10.00
2022-07-30T03:21:10.463Z,8.40
2022-07-30T03:22:10.454Z,10.20
2022-07-30T03:23:10.442Z,10.00
2022-07-30T03:24:10.429Z,12.10
2022-07-30T03:25:10.416Z,8.80
2022-07-30T03:26:10.406Z,8.40
2022-07-30T03:27:10.393Z,12.20
2022-07-30T03:28:10.385Z,8.60
2022-07-30T03:29:10.372Z,10.50
2022-07-30T03:30:10.361Z,10.80
2022-07-30T03:31:10.395Z,8.40
2022-07-30T03:32:10.338Z,11.40
2022-07-30T03:33:10.327Z,10.80
2022-07-30T03:34:10.318Z,11.40
2022-07-30T03:35:17.166Z,7.40
2022-07-30T03:36:11.319Z,8.20
2022-07-30T03:37:10.281Z,9.60
2022-07-30T03:38:10.272Z,11.10
2022-07-30T03:39:10.261Z,13.10
2022-07-30T03:40:10.249Z,8.60
2022-07-30T03:41:10.241Z,9.20
2022-07-30T03:42:10.231Z,10.90
2022-07-30T03:43:32.235Z,14.20
2022-07-30T03:44:10.208Z,7.30
2022-07-30T03:45:10.194Z,9.80
2022-07-30T03:46:10.250Z,9.40
2022-07-30T03:47:10.174Z,9.90
2022-07-30T03:48:10.164Z,10.20
2022-07-30T03:49:10.220Z,12.90
2022-07-30T03:50:10.146Z,11.80
2022-07-30T03:51:10.144Z,9.00
2022-07-30T03:52:10.124Z,10.30
2022-07-30T03:53:10.109Z,11.60
2022-07-30T03:54:13.367Z,10.00
2022-07-30T03:55:10.087Z,10.40
2022-07-30T03:56:10.082Z,12.40
2022-07-30T03:57:10.067Z,12.30
2022-07-30T03:58:10.059Z,12.50
2022-07-30T03:59:10.108Z,10.70
2022-07-30T04:00:10.116Z,10.30
2022-07-30T04:01:10.050Z,9.40
2022-07-30T04:02:10.130Z,9.20
2022-07-30T04:03:10.040Z,15.30
2022-07-30T04:04:10.148Z,9.00
2022-07-30T04:05:09.991Z,11.50
2022-07-30T04:06:09.994Z,10.20
2022-07-30T04:07:09.961Z,10.70
2022-07-30T04:08:09.952Z,10.00
2022-07-30T04:09:09.944Z,12.10
2022-07-30T04:10:09.931Z,12.30
2022-07-30T04:11:09.923Z,11.30
2022-07-30T04:12:09.909Z,13.20
2022-07-30T04:13:09.976Z,11.80
2022-07-30T04:14:09.888Z,10.40
2022-07-30T04:16:06.037Z,11.70
2022-07-30T04:16:41.306Z,12.20
2022-07-30T04:17:09.945Z,12.10
2022-07-30T04:18:09.845Z,11.10
2022-07-30T04:19:09.833Z,10.00
2022-07-30T04:20:09.834Z,10.40
2022-07-30T04:21:17.010Z,9.50
2022-07-30T04:22:09.804Z,10.10
2022-07-30T04:23:09.790Z,13.10
2022-07-30T04:24:09.782Z,10.60
2022-07-30T04:25:09.768Z,10.10
2022-07-30T04:26:09.759Z,9.20
2022-07-30T04:27:09.747Z,9.30
2022-07-30T04:28:09.738Z,10.20
2022-07-30T04:29:14.298Z,9.30
2022-07-30T04:30:09.719Z,9.80
2022-07-30T04:31:09.733Z,14.90
2022-07-30T04:32:09.710Z,11.90
2022-07-30T04:33:09.683Z,9.80
2022-07-30T04:34:09.675Z,10.00
2022-07-30T04:35:09.667Z,9.10
2022-07-30T04:36:11.174Z,8.60
2022-07-30T04:37:09.640Z,10.40
2022-07-30T04:38:09.631Z,11.30
2022-07-30T04:39:09.620Z,11.60
2022-07-30T04:40:09.609Z,11.10
2022-07-30T04:41:09.597Z,13.60
2022-07-30T04:42:09.590Z,10.00
2022-07-30T04:43:09.581Z,13.10
2022-07-30T04:44:09.579Z,10.00
2022-07-30T04:45:09.586Z,10.80
2022-07-30T04:46:09.594Z,12.00
2022-07-30T04:47:09.545Z,10.10
2022-07-30T04:48:09.531Z,10.80
2022-07-30T04:49:09.585Z,9.30
2022-07-30T04:50:09.502Z,10.90
2022-07-30T04:51:09.491Z,10.60
2022-07-30T04:52:09.477Z,12.20
2022-07-30T04:53:09.464Z,14.20
2022-07-30T04:54:15.209Z,10.00
2022-07-30T04:55:09.444Z,10.20
2022-07-30T04:56:09.433Z,10.30
2022-07-30T04:57:09.422Z,10.00
2022-07-30T04:58:09.409Z,13.20
2022-07-30T04:59:09.402Z,20.30
2022-07-30T05:00:09.386Z,10.30
2022-07-30T05:01:09.597Z,12.60
2022-07-30T05:02:09.443Z,13.00
2022-07-30T05:03:09.353Z,12.30
2022-07-30T05:04:09.341Z,12.50
2022-07-30T05:05:09.415Z,14.90
2022-07-30T05:06:09.318Z,13.00
2022-07-30T05:07:09.311Z,9.30
2022-07-30T05:08:09.335Z,10.90
2022-07-30T05:09:09.297Z,13.30
2022-07-30T05:10:09.317Z,10.10
2022-07-30T05:11:09.556Z,10.30
2022-07-30T05:12:09.250Z,9.90
2022-07-30T05:13:09.239Z,11.70
2022-07-30T05:14:09.246Z,10.30
2022-07-30T05:15:09.221Z,13.60
2022-07-30T05:16:09.246Z,12.80
2022-07-30T05:17:09.197Z,12.40
2022-07-30T05:18:09.185Z,11.20
2022-07-30T05:19:09.180Z,11.70
2022-07-30T05:20:09.165Z,11.00
2022-07-30T05:21:09.156Z,9.90
2022-07-30T05:22:09.141Z,11.30
2022-07-30T05:23:09.131Z,10.30
2022-07-30T05:24:09.123Z,12.10
2022-07-30T05:25:15.784Z,12.50
2022-07-30T05:26:09.096Z,12.60
2022-07-30T05:27:09.089Z,11.50
2022-07-30T05:28:09.078Z,11.90
2022-07-30T05:29:09.067Z,12.90
2022-07-30T05:30:10.083Z,12.50
2022-07-30T05:31:09.138Z,9.80
2022-07-30T05:32:09.057Z,10.60
2022-07-30T05:33:13.290Z,9.70
2022-07-30T05:34:09.043Z,9.70
2022-07-30T05:35:09.002Z,9.90
2022-07-30T05:36:08.988Z,9.00
2022-07-30T05:37:10.056Z,8.50
2022-07-30T05:38:08.965Z,11.40
2022-07-30T05:39:08.957Z,9.80
2022-07-30T05:40:08.945Z,9.40
2022-07-30T05:41:19.089Z,9.90
2022-07-30T05:42:09.960Z,8.50
2022-07-30T05:43:08.915Z,8.70
2022-07-30T05:44:08.906Z,10.20
2022-07-30T05:45:08.893Z,10.40
2022-07-30T05:46:08.925Z,9.40
2022-07-30T05:47:08.882Z,9.60
2022-07-30T05:48:08.859Z,8.70
2022-07-30T05:49:08.919Z,10.60
2022-07-30T05:50:08.837Z,9.70
2022-07-30T05:51:08.826Z,9.70
2022-07-30T05:52:08.814Z,10.60
2022-07-30T05:53:08.821Z,10.40
2022-07-30T05:54:08.902Z,8.80
2022-07-30T05:55:08.991Z,9.70
2022-07-30T05:56:09.001Z,10.00
2022-07-30T05:57:08.762Z,8.10
2022-07-30T05:58:08.768Z,10.20
2022-07-30T05:59:08.740Z,11.00
2022-07-30T06:00:10.728Z,9.10
2022-07-30T06:01:08.817Z,8.90
2022-07-30T06:02:08.710Z,8.90
2022-07-30T06:03:08.696Z,9.50
2022-07-30T06:04:08.722Z,12.00
2022-07-30T06:05:08.674Z,9.80
2022-07-30T06:06:08.666Z,10.30
2022-07-30T06:07:08.673Z,10.00
2022-07-30T06:08:08.642Z,11.50
2022-07-30T06:09:08.632Z,8.30
2022-07-30T06:10:08.620Z,10.10
2022-07-30T06:11:08.609Z,9.90
2022-07-30T06:12:08.597Z,8.70
2022-07-30T06:13:08.587Z,8.30
2022-07-30T06:14:08.578Z,7.40
2022-07-30T06:15:08.567Z,8.10
2022-07-30T06:16:08.594Z,10.70
2022-07-30T06:17:08.574Z,9.30
2022-07-30T06:18:08.571Z,8.10
2022-07-30T06:19:08.531Z,12.20
2022-07-30T06:20:08.517Z,9.70
2022-07-30T06:21:08.502Z,8.60
2022-07-30T06:22:08.492Z,9.20
2022-07-30T06:23:08.482Z,9.40
2022-07-30T06:24:08.469Z,11.30
2022-07-30T06:25:08.460Z,9.40
2022-07-30T06:26:08.447Z,10.60
2022-07-30T06:27:08.440Z,8.80
2022-07-30T06:28:27.864Z,9.20
2022-07-30T06:29:09.489Z,10.00
2022-07-30T06:30:08.403Z,11.80
2022-07-30T06:31:08.462Z,9.20
2022-07-30T06:32:08.381Z,10.40
2022-07-30T06:33:08.372Z,10.30
2022-07-30T06:34:08.358Z,8.40
2022-07-30T06:35:08.349Z,8.70
2022-07-30T06:36:08.338Z,12.80
2022-07-30T06:37:08.328Z,10.30
2022-07-30T06:38:08.335Z,9.10
2022-07-30T06:39:08.401Z,9.80
2022-07-30T06:40:08.335Z,11.00
2022-07-30T06:41:08.335Z,9.70
2022-07-30T06:42:08.278Z,10.80
2022-07-30T06:43:08.261Z,9.30
2022-07-30T06:44:08.250Z,10.60
2022-07-30T06:45:08.242Z,13.20
2022-07-30T06:46:08.283Z,12.00
2022-07-30T06:47:08.732Z,10.20
2022-07-30T06:48:08.208Z,10.80
2022-07-30T06:49:08.346Z,10.70
2022-07-30T06:50:08.229Z,12.00
2022-07-30T06:51:08.173Z,11.70
2022-07-30T06:52:08.425Z,11.70
2022-07-30T06:53:08.153Z,13.90
2022-07-30T06:54:08.142Z,12.40
2022-07-30T06:55:08.131Z,12.20
2022-07-30T06:56:08.119Z,12.70
2022-07-30T06:57:08.109Z,15.00
2022-07-30T06:58:08.095Z,13.20
2022-07-30T06:59:08.089Z,14.60
2022-07-30T07:00:08.077Z,14.50
2022-07-30T07:01:11.049Z,12.50
2022-07-30T07:02:08.069Z,11.00
2022-07-30T07:03:11.630Z,12.30
2022-07-30T07:04:08.122Z,12.80
2022-07-30T07:05:08.022Z,12.60
2022-07-30T07:06:08.010Z,15.90
2022-07-30T07:07:12.510Z,13.00
2022-07-30T07:08:08.000Z,15.20
2022-07-30T07:09:07.981Z,14.60
2022-07-30T07:10:07.970Z,14.80
2022-07-30T07:11:07.959Z,15.40
2022-07-30T07:12:07.946Z,12.90
2022-07-30T07:13:08.012Z,14.80
2022-07-30T07:14:07.926Z,14.00
2022-07-30T07:15:07.921Z,13.30
2022-07-30T07:16:07.903Z,13.50
2022-07-30T07:17:08.228Z,20.50
2022-07-30T07:18:07.887Z,14.80
2022-07-30T07:19:07.871Z,15.90
2022-07-30T07:20:07.861Z,13.60
2022-07-30T07:21:07.853Z,15.20
2022-07-30T07:22:07.845Z,12.90
2022-07-30T07:23:09.207Z,13.10
2022-07-30T07:24:07.852Z,16.10
2022-07-30T07:25:07.827Z,13.60
2022-07-30T07:26:07.839Z,12.60
2022-07-30T07:27:07.790Z,18.10
2022-07-30T07:28:11.622Z,13.70
2022-07-30T07:29:07.768Z,15.50
2022-07-30T07:30:07.757Z,12.40
2022-07-30T07:31:07.913Z,13.30
2022-07-30T07:32:08.199Z,13.00
2022-07-30T07:33:07.727Z,13.40
2022-07-30T07:34:07.719Z,11.20
2022-07-30T07:35:07.701Z,17.10
2022-07-30T07:36:07.692Z,13.40
2022-07-30T07:37:07.683Z,18.10
2022-07-30T07:38:07.676Z,15.90
2022-07-30T07:39:07.660Z,12.70
2022-07-30T07:40:07.651Z,11.50
2022-07-30T07:41:07.637Z,15.40
2022-07-30T07:42:07.626Z,12.70
2022-07-30T07:43:07.618Z,14.80
2022-07-30T07:44:07.607Z,15.20
2022-07-30T07:45:07.596Z,11.20
2022-07-30T07:46:07.697Z,11.00
2022-07-30T07:47:07.592Z,10.00
2022-07-30T07:48:07.590Z,12.60
2022-07-30T07:49:07.670Z,8.50
2022-07-30T07:50:07.539Z,12.60
2022-07-30T07:51:09.604Z,11.40
2022-07-30T07:52:07.521Z,14.00
2022-07-30T07:53:07.511Z,11.00
2022-07-30T07:54:21.136Z,14.10
2022-07-30T07:55:07.488Z,14.90
2022-07-30T07:56:07.476Z,11.80
2022-07-30T07:57:07.466Z,14.70
2022-07-30T07:58:07.456Z,12.80
2022-07-30T07:59:07.450Z,10.90
2022-07-30T08:00:07.437Z,14.10
2022-07-30T08:01:07.465Z,16.10
2022-07-30T08:02:08.121Z,14.50
2022-07-30T08:03:07.407Z,12.40
2022-07-30T08:04:10.183Z,10.40
2022-07-30T08:05:07.385Z,15.60
2022-07-30T08:06:10.830Z,9.40
2022-07-30T08:07:07.362Z,14.80
2022-07-30T08:08:07.350Z,12.70
2022-07-30T08:09:07.340Z,11.10
2022-07-30T08:10:07.361Z,12.60
2022-07-30T08:11:07.369Z,12.80
2022-07-30T08:12:07.318Z,14.00
2022-07-30T08:13:07.320Z,15.40
2022-07-30T08:14:07.293Z,12.00
2022-07-30T08:15:07.272Z,12.00
2022-07-30T08:16:07.274Z,13.70
2022-07-30T08:17:08.033Z,11.10
2022-07-30T08:18:07.241Z,12.00
2022-07-30T08:19:07.238Z,11.50
2022-07-30T08:20:07.260Z,11.70
2022-07-30T08:21:07.215Z,11.30
2022-07-30T08:22:07.203Z,11.60
2022-07-30T08:23:07.191Z,10.70
2022-07-30T08:24:07.174Z,12.30
2022-07-30T08:25:07.164Z,11.90
2022-07-30T08:26:07.160Z,11.20
2022-07-30T08:27:07.145Z,13.60
2022-07-30T08:28:07.130Z,12.20
2022-07-30T08:29:07.145Z,13.00
2022-07-30T08:30:07.199Z,11.50
2022-07-30T08:31:07.112Z,15.60
2022-07-30T08:32:07.115Z,13.30
2022-07-30T08:33:07.081Z,9.40
2022-07-30T08:34:07.071Z,11.10
2022-07-30T08:35:07.286Z,9.80
2022-07-30T08:36:09.604Z,15.00
2022-07-30T08:37:07.041Z,10.60
2022-07-30T08:38:07.025Z,13.20
2022-07-30T08:39:07.019Z,12.30
2022-07-30T08:40:07.004Z,10.50
2022-07-30T08:41:06.995Z,12.10
2022-07-30T08:42:06.986Z,12.70
2022-07-30T08:43:07.028Z,11.40
2022-07-30T08:44:11.596Z,10.80
2022-07-30T08:45:06.955Z,12.90
2022-07-30T08:46:06.943Z,12.00
2022-07-30T08:47:06.931Z,10.30
2022-07-30T08:48:06.918Z,11.30
2022-07-30T08:49:10.813Z,11.50
2022-07-30T08:50:06.902Z,11.30
2022-07-30T08:51:06.892Z,12.10
2022-07-30T08:52:06.892Z,13.80
2022-07-30T08:53:06.919Z,12.70
2022-07-30T08:54:06.875Z,12.70
2022-07-30T08:55:06.852Z,12.50
2022-07-30T08:56:06.860Z,10.60
2022-07-30T08:57:06.823Z,10.40
2022-07-30T08:58:06.813Z,13.40
2022-07-30T08:59:06.807Z,10.40
2022-07-30T09:00:06.790Z,11.60
2022-07-30T09:01:06.784Z,12.10
2022-07-30T09:02:10.401Z,12.40
2022-07-30T09:03:06.762Z,12.10
2022-07-30T09:04:06.763Z,11.70
2022-07-30T09:05:06.741Z,14.00
2022-07-30T09:06:06.728Z,11.90
2022-07-30T09:07:06.719Z,12.10
2022-07-30T09:08:08.976Z,13.30
2022-07-30T09:09:06.699Z,12.30
2022-07-30T09:10:06.691Z,11.10
2022-07-30T09:11:06.678Z,12.70
2022-07-30T09:12:06.665Z,10.30
2022-07-30T09:13:06.658Z,11.30
2022-07-30T09:14:08.604Z,9.50
2022-07-30T09:15:06.659Z,9.10
2022-07-30T09:16:06.685Z,13.90
2022-07-30T09:17:06.714Z,11.90
2022-07-30T09:18:06.628Z,9.90
2022-07-30T09:19:06.594Z,11.30
2022-07-30T09:20:06.596Z,9.30
2022-07-30T09:21:06.570Z,13.60
2022-07-30T09:22:06.563Z,9.80
2022-07-30T09:23:06.555Z,16.40
2022-07-30T09:24:06.546Z,8.70
2022-07-30T09:25:06.532Z,10.30
2022-07-30T09:26:06.520Z,9.60
2022-07-30T09:27:06.937Z,10.20
2022-07-30T09:28:11.151Z,9.10
2022-07-30T09:29:07.551Z,8.00
2022-07-30T09:30:06.483Z,7.60
2022-07-30T09:31:06.472Z,10.80
2022-07-30T09:32:06.856Z,9.30
2022-07-30T09:33:06.455Z,12.20
2022-07-30T09:34:06.443Z,9.40
2022-07-30T09:35:06.460Z,12.20
2022-07-30T09:36:06.424Z,10.60
2022-07-30T09:37:06.411Z,11.70
2022-07-30T09:38:06.821Z,8.60
2022-07-30T09:39:06.450Z,14.70
2022-07-30T09:40:06.421Z,10.00
2022-07-30T09:41:17.197Z,8.40
2022-07-30T09:42:06.377Z,8.30
2022-07-30T09:43:06.356Z,10.60
2022-07-30T09:44:06.374Z,12.30
2022-07-30T09:45:06.339Z,11.50
2022-07-30T09:46:06.325Z,8.10
2022-07-30T09:47:06.320Z,8.30
2022-07-30T09:48:06.306Z,9.60
2022-07-30T09:49:06.367Z,7.20
2022-07-30T09:50:07.501Z,11.20
2022-07-30T09:51:06.279Z,7.70
2022-07-30T09:52:07.688Z,8.80
2022-07-30T09:53:06.260Z,9.50
2022-07-30T09:54:06.249Z,8.00
2022-07-30T09:55:06.239Z,8.40
2022-07-30T09:56:06.233Z,6.80
2022-07-30T09:57:06.221Z,11.60
2022-07-30T09:58:07.237Z,9.70
2022-07-30T09:59:06.200Z,7.70
2022-07-30T10:00:06.194Z,11.90
2022-07-30T10:01:06.202Z,9.30
2022-07-30T10:02:10.273Z,10.30
2022-07-30T10:03:12.726Z,8.10
2022-07-30T10:04:07.187Z,9.60
2022-07-30T10:05:06.143Z,8.90
2022-07-30T10:06:06.134Z,10.10
2022-07-30T10:07:06.125Z,8.50
2022-07-30T10:08:09.344Z,9.30
2022-07-30T10:09:14.203Z,8.90
2022-07-30T10:10:07.122Z,8.40
2022-07-30T10:11:09.677Z,8.10
2022-07-30T10:12:10.309Z,8.40
2022-07-30T10:13:06.063Z,8.90
2022-07-30T10:14:06.061Z,8.50
2022-07-30T10:15:07.271Z,10.80
2022-07-30T10:16:06.042Z,11.60
2022-07-30T10:17:06.029Z,9.80
2022-07-30T10:18:06.623Z,7.60
2022-07-30T10:19:07.118Z,8.50
2022-07-30T10:20:08.206Z,8.90
2022-07-30T10:21:06.000Z,9.90
2022-07-30T10:22:05.985Z,9.10
2022-07-30T10:23:07.662Z,8.90
2022-07-30T10:24:06.878Z,8.50
2022-07-30T10:25:05.982Z,6.90
2022-07-30T10:26:05.965Z,6.80
2022-07-30T10:27:06.591Z,10.30
2022-07-30T10:28:05.924Z,7.80
2022-07-30T10:29:05.915Z,9.30
2022-07-30T10:30:05.917Z,7.30
2022-07-30T10:31:08.280Z,7.90
2022-07-30T10:32:05.884Z,7.80
2022-07-30T10:33:05.875Z,6.10
2022-07-30T10:34:05.874Z,7.80
2022-07-30T10:35:05.890Z,9.70
2022-07-30T10:36:05.850Z,8.40
2022-07-30T10:37:06.844Z,8.80
2022-07-30T10:38:05.828Z,9.20
2022-07-30T10:39:05.821Z,6.50
2022-07-30T10:40:05.809Z,8.10
2022-07-30T10:41:05.800Z,7.20
2022-07-30T10:42:05.787Z,9.90
2022-07-30T10:43:05.777Z,9.10
2022-07-30T10:44:05.771Z,8.90
2022-07-30T10:45:05.763Z,8.00
2022-07-30T10:46:05.775Z,6.90
2022-07-30T10:47:07.769Z,8.30
2022-07-30T10:48:05.851Z,8.10
2022-07-30T10:49:05.782Z,9.70
2022-07-30T10:50:05.714Z,8.70
2022-07-30T10:51:05.701Z,7.90
2022-07-30T10:52:05.689Z,8.10
2022-07-30T10:53:05.678Z,8.50
2022-07-30T10:54:05.670Z,8.20
2022-07-30T10:55:06.688Z,7.90
2022-07-30T10:56:05.656Z,9.20
2022-07-30T10:57:05.643Z,7.90
2022-07-30T10:58:05.922Z,8.40
2022-07-30T10:59:05.624Z,10.20
2022-07-30T11:00:05.615Z,6.70
2022-07-30T11:01:05.604Z,8.50
2022-07-30T11:02:07.058Z,8.00
2022-07-30T11:03:14.239Z,7.80
2022-07-30T11:04:05.577Z,6.80
2022-07-30T11:05:05.565Z,9.50
2022-07-30T11:06:05.558Z,5.90
2022-07-30T11:07:05.548Z,5.90
2022-07-30T11:08:05.541Z,9.20
2022-07-30T11:09:05.545Z,10.20
2022-07-30T11:10:09.496Z,6.40
2022-07-30T11:11:19.690Z,6.40
2022-07-30T11:12:06.826Z,9.60
2022-07-30T11:13:05.489Z,10.20
2022-07-30T11:14:05.479Z,7.70
2022-07-30T11:15:06.888Z,6.20
2022-07-30T11:16:07.518Z,6.90
2022-07-30T11:17:05.450Z,9.40
2022-07-30T11:18:12.510Z,9.20
2022-07-30T11:19:55.016Z,8.30
2022-07-30T11:20:06.463Z,7.20
2022-07-30T11:21:05.963Z,8.10
2022-07-30T11:22:05.575Z,7.00
2022-07-30T11:23:05.393Z,8.40
2022-07-30T11:24:05.380Z,6.00
2022-07-30T11:25:13.087Z,7.60
2022-07-30T11:26:06.391Z,7.80
2022-07-30T11:27:05.353Z,8.60
2022-07-30T11:28:05.342Z,8.10
2022-07-30T11:29:05.335Z,8.10
2022-07-30T11:30:05.373Z,9.60
2022-07-30T11:31:10.396Z,6.50
2022-07-30T11:32:06.996Z,8.10
2022-07-30T11:33:05.358Z,6.70
2022-07-30T11:34:05.409Z,6.90
2022-07-30T11:35:05.295Z,7.40
2022-07-30T11:36:05.263Z,8.60
2022-07-30T11:37:18.816Z,6.90
2022-07-30T11:38:05.256Z,9.40
2022-07-30T11:39:07.365Z,6.00
2022-07-30T11:40:05.227Z,6.20
2022-07-30T11:41:05.216Z,7.60
2022-07-30T11:42:05.206Z,9.40
2022-07-30T11:43:05.197Z,6.90
2022-07-30T11:44:05.184Z,6.80
2022-07-30T11:45:05.180Z,6.80
2022-07-30T11:46:05.166Z,7.50
2022-07-30T11:47:05.157Z,6.30
2022-07-30T11:48:05.147Z,7.40
2022-07-30T11:49:05.340Z,7.10
2022-07-30T11:50:05.129Z,9.70
2022-07-30T11:51:05.115Z,6.70
2022-07-30T11:52:05.285Z,6.20
2022-07-30T11:53:05.095Z,7.50
2022-07-30T11:54:05.091Z,7.60
2022-07-30T11:55:05.087Z,6.80
2022-07-30T11:56:05.096Z,11.10
2022-07-30T11:57:05.095Z,5.80
2022-07-30T11:58:05.060Z,6.20
2022-07-30T11:59:05.034Z,8.60
2022-07-30T12:00:05.031Z,8.40
2022-07-30T12:01:09.439Z,5.50
2022-07-30T12:02:05.500Z,7.50
2022-07-30T12:03:05.002Z,7.60
2022-07-30T12:04:04.995Z,7.60
2022-07-30T12:05:04.972Z,7.60
2022-07-30T12:06:04.966Z,6.00
2022-07-30T12:07:05.250Z,8.40
2022-07-30T12:08:04.945Z,6.30
2022-07-30T12:09:04.931Z,6.30
2022-07-30T12:10:04.922Z,10.60
2022-07-30T12:11:04.930Z,9.20
2022-07-30T12:12:04.906Z,8.10
2022-07-30T12:13:04.893Z,7.50
2022-07-30T12:14:04.887Z,5.40
2022-07-30T12:15:04.877Z,7.70
2022-07-30T12:16:04.867Z,7.70
2022-07-30T12:17:05.288Z,10.50
2022-07-30T12:18:25.207Z,8.50
2022-07-30T12:19:05.876Z,7.00
2022-07-30T12:20:05.033Z,6.90
2022-07-30T12:21:04.897Z,7.20
2022-07-30T12:22:04.877Z,6.10
2022-07-30T12:23:04.866Z,8.00
2022-07-30T12:24:04.849Z,6.00
2022-07-30T12:25:04.800Z,8.00
2022-07-30T12:26:04.969Z,6.00
2022-07-30T12:27:05.438Z,7.40
2022-07-30T12:28:04.754Z,8.00
2022-07-30T12:29:04.743Z,6.30
2022-07-30T12:30:04.736Z,6.70
2022-07-30T12:31:04.726Z,6.50
2022-07-30T12:32:04.716Z,8.80
2022-07-30T12:33:04.706Z,8.30
2022-07-30T12:34:04.697Z,10.50
2022-07-30T12:35:04.687Z,9.40
2022-07-30T12:36:04.678Z,7.60
2022-07-30T12:37:04.967Z,5.60
2022-07-30T12:38:04.660Z,6.20
2022-07-30T12:39:04.647Z,6.90
2022-07-30T12:40:04.639Z,6.00
2022-07-30T12:41:04.631Z,5.20
2022-07-30T12:42:04.641Z,8.50
2022-07-30T12:43:04.681Z,7.40
2022-07-30T12:44:05.625Z,6.00
2022-07-30T12:45:04.593Z,5.60
2022-07-30T12:46:04.586Z,8.10
2022-07-30T12:47:05.231Z,9.40
2022-07-30T12:48:04.565Z,7.10
2022-07-30T12:49:17.486Z,6.40
2022-07-30T12:50:04.581Z,6.30
2022-07-30T12:51:04.529Z,6.40
2022-07-30T12:52:04.520Z,8.60
2022-07-30T12:53:04.510Z,9.20
2022-07-30T12:54:04.500Z,7.10
2022-07-30T12:55:04.492Z,7.00
2022-07-30T12:56:04.480Z,6.90
2022-07-30T12:57:04.825Z,7.30
2022-07-30T12:58:08.448Z,8.40
2022-07-30T12:59:04.447Z,6.50
2022-07-30T13:00:04.441Z,6.70
2022-07-30T13:01:04.428Z,5.90
2022-07-30T13:02:04.568Z,5.30
2022-07-30T13:03:04.409Z,6.50
2022-07-30T13:04:04.399Z,7.90
2022-07-30T13:05:10.611Z,6.60
2022-07-30T13:06:05.406Z,7.10
2022-07-30T13:07:04.687Z,5.50